sensor_id;sensor_type;location;lat;lon;timestamp;P1;durP1;ratioP1;P2;durP2;ratioP2
52342;SDS011;38277;51.972;4.624;2022-07-04T00:03:33;2.7;;;1.4;;
52342;SDS011;38277;51.972;4.624;2022-07-04T00:08:24;2.8;;;1.3;;
52342;SDS011;38277;51.972;4.624;2022-07-04T00:12:50;5.0;;;1.6;;
52342;SDS011;38277;51.972;4.624;2022-07-04T00:17:19;3.0;;;1.6;;
52342;SDS011;38277;51.972;4.624;2022-07-04T00:21:42;3.9;;;1.4;;
52342;SDS011;38277;51.972;4.624;2022-07-04T00:26:14;4.1;;;1.7;;
52342;SDS011;38277;51.972;4.624;2022-07-04T00:30:56;3.4;;;1.4;;
52342;SDS011;38277;51.972;4.624;2022-07-04T00:35:21;1.4;;;0.9;;
52342;SDS011;38277;51.972;4.624;2022-07-04T00:39:38;4.0;;;1.4;;
52342;SDS011;38277;51.972;4.624;2022-07-04T00:44:01;4.9;;;1.3;;
52342;SDS011;38277;51.972;4.624;2022-07-04T00:48:57;2.3;;;1.3;;
52342;SDS011;38277;51.972;4.624;2022-07-04T00:53:16;2.7;;;1.3;;
52342;SDS011;38277;51.972;4.624;2022-07-04T01:02:11;3.3;;;1.3;;
52342;SDS011;38277;51.972;4.624;2022-07-04T01:06:31;3.2;;;1.7;;
52342;SDS011;38277;51.972;4.624;2022-07-04T01:15:40;4.5;;;1.7;;
52342;SDS011;38277;51.972;4.624;2022-07-04T01:20:14;3.7;;;1.2;;
52342;SDS011;38277;51.972;4.624;2022-07-04T01:24:30;2.4;;;1.6;;
52342;SDS011;38277;51.972;4.624;2022-07-04T01:29:23;5.7;;;1.9;;
52342;SDS011;38277;51.972;4.624;2022-07-04T01:33:53;4.1;;;1.5;;
52342;SDS011;38277;51.972;4.624;2022-07-04T01:38:05;4.3;;;1.6;;
52342;SDS011;38277;51.972;4.624;2022-07-04T01:42:29;2.8;;;1.3;;
52342;SDS011;38277;51.972;4.624;2022-07-04T01:51:29;5.4;;;1.8;;
52342;SDS011;38277;51.972;4.624;2022-07-04T02:00:45;2.9;;;1.4;;
52342;SDS011;38277;51.972;4.624;2022-07-04T02:04:59;4.7;;;1.4;;
52342;SDS011;38277;51.972;4.624;2022-07-04T02:09:34;3.7;;;1.5;;
52342;SDS011;38277;51.972;4.624;2022-07-04T02:14:22;3.4;;;1.6;;
52342;SDS011;38277;51.972;4.624;2022-07-04T02:18:44;4.1;;;1.6;;
52342;SDS011;38277;51.972;4.624;2022-07-04T02:23:25;6.3;;;1.6;;
52342;SDS011;38277;51.972;4.624;2022-07-04T02:27:44;2.8;;;1.5;;
52342;SDS011;38277;51.972;4.624;2022-07-04T02:32:17;4.5;;;1.8;;
52342;SDS011;38277;51.972;4.624;2022-07-04T02:36:39;3.9;;;1.4;;
52342;SDS011;38277;51.972;4.624;2022-07-04T02:41:13;4.9;;;1.8;;
52342;SDS011;38277;51.972;4.624;2022-07-04T02:45:49;8.4;;;2.3;;
52342;SDS011;38277;51.972;4.624;2022-07-04T02:50:13;7.0;;;2.8;;
52342;SDS011;38277;51.972;4.624;2022-07-04T02:54:39;5.7;;;2.0;;
52342;SDS011;38277;51.972;4.624;2022-07-04T02:59:18;6.5;;;2.0;;
52342;SDS011;38277;51.972;4.624;2022-07-04T03:03:40;4.3;;;1.6;;
52342;SDS011;38277;51.972;4.624;2022-07-04T03:08:27;6.7;;;1.9;;
52342;SDS011;38277;51.972;4.624;2022-07-04T03:17:24;3.8;;;1.6;;
52342;SDS011;38277;51.972;4.624;2022-07-04T03:21:37;4.2;;;1.8;;
52342;SDS011;38277;51.972;4.624;2022-07-04T03:26:26;6.0;;;1.8;;
52342;SDS011;38277;51.972;4.624;2022-07-04T03:30:44;6.3;;;1.9;;
52342;SDS011;38277;51.972;4.624;2022-07-04T03:35:21;4.4;;;1.6;;
52342;SDS011;38277;51.972;4.624;2022-07-04T03:39:30;3.1;;;2.2;;
52342;SDS011;38277;51.972;4.624;2022-07-04T03:43:59;4.4;;;2.3;;
52342;SDS011;38277;51.972;4.624;2022-07-04T03:53:08;8.0;;;2.3;;
52342;SDS011;38277;51.972;4.624;2022-07-04T03:57:52;5.5;;;1.9;;
52342;SDS011;38277;51.972;4.624;2022-07-04T04:02:10;6.2;;;2.8;;
52342;SDS011;38277;51.972;4.624;2022-07-04T04:06:54;6.1;;;2.1;;
52342;SDS011;38277;51.972;4.624;2022-07-04T04:11:07;8.3;;;2.3;;
52342;SDS011;38277;51.972;4.624;2022-07-04T04:15:49;9.6;;;2.4;;
52342;SDS011;38277;51.972;4.624;2022-07-04T04:20:24;5.5;;;1.9;;
52342;SDS011;38277;51.972;4.624;2022-07-04T04:24:30;5.0;;;2.3;;
52342;SDS011;38277;51.972;4.624;2022-07-04T04:29:11;7.8;;;2.7;;
52342;SDS011;38277;51.972;4.624;2022-07-04T04:33:33;10.2;;;3.1;;
52342;SDS011;38277;51.972;4.624;2022-07-04T04:38:04;6.9;;;2.4;;
52342;SDS011;38277;51.972;4.624;2022-07-04T04:42:50;7.5;;;2.9;;
52342;SDS011;38277;51.972;4.624;2022-07-04T04:47:18;8.6;;;2.8;;
52342;SDS011;38277;51.972;4.624;2022-07-04T04:51:34;8.1;;;3.2;;
52342;SDS011;38277;51.972;4.624;2022-07-04T04:56:00;12.2;;;3.5;;
52342;SDS011;38277;51.972;4.624;2022-07-04T05:00:33;6.6;;;2.6;;
52342;SDS011;38277;51.972;4.624;2022-07-04T05:05:00;7.9;;;3.5;;
52342;SDS011;38277;51.972;4.624;2022-07-04T05:09:31;5.0;;;2.5;;
52342;SDS011;38277;51.972;4.624;2022-07-04T05:18:45;9.6;;;2.7;;
52342;SDS011;38277;51.972;4.624;2022-07-04T05:23:12;9.0;;;2.6;;
52342;SDS011;38277;51.972;4.624;2022-07-04T05:27:29;8.2;;;2.9;;
52342;SDS011;38277;51.972;4.624;2022-07-04T05:36:37;8.0;;;2.5;;
52342;SDS011;38277;51.972;4.624;2022-07-04T05:41:24;10.2;;;3.4;;
52342;SDS011;38277;51.972;4.624;2022-07-04T05:45:35;8.3;;;2.9;;
52342;SDS011;38277;51.972;4.624;2022-07-04T05:54:54;7.7;;;2.7;;
52342;SDS011;38277;51.972;4.624;2022-07-04T05:59:10;9.8;;;2.8;;
52342;SDS011;38277;51.972;4.624;2022-07-04T06:03:42;9.5;;;2.7;;
52342;SDS011;38277;51.972;4.624;2022-07-04T06:08:14;12.3;;;3.6;;
52342;SDS011;38277;51.972;4.624;2022-07-04T06:12:46;8.2;;;3.3;;
52342;SDS011;38277;51.972;4.624;2022-07-04T06:17:27;8.3;;;2.4;;
52342;SDS011;38277;51.972;4.624;2022-07-04T06:21:54;7.9;;;2.8;;
52342;SDS011;38277;51.972;4.624;2022-07-04T06:26:12;6.5;;;2.6;;
52342;SDS011;38277;51.972;4.624;2022-07-04T06:30:44;3.6;;;1.7;;
52342;SDS011;38277;51.972;4.624;2022-07-04T06:34:59;4.7;;;1.7;;
52342;SDS011;38277;51.972;4.624;2022-07-04T06:39:36;3.1;;;1.6;;
52342;SDS011;38277;51.972;4.624;2022-07-04T06:44:09;4.2;;;1.7;;
52342;SDS011;38277;51.972;4.624;2022-07-04T06:48:29;3.6;;;1.5;;
52342;SDS011;38277;51.972;4.624;2022-07-04T06:57:49;4.8;;;1.5;;
52342;SDS011;38277;51.972;4.624;2022-07-04T07:02:15;4.5;;;1.8;;
52342;SDS011;38277;51.972;4.624;2022-07-04T07:06:43;3.0;;;1.4;;
52342;SDS011;38277;51.972;4.624;2022-07-04T07:11:08;5.3;;;1.9;;
52342;SDS011;38277;51.972;4.624;2022-07-04T07:15:54;1.6;;;1.2;;
52342;SDS011;38277;51.972;4.624;2022-07-04T07:20:20;2.9;;;1.3;;
52342;SDS011;38277;51.972;4.624;2022-07-04T07:24:58;5.2;;;1.8;;
52342;SDS011;38277;51.972;4.624;2022-07-04T07:33:37;5.2;;;2.1;;
52342;SDS011;38277;51.972;4.624;2022-07-04T07:38:01;3.3;;;1.4;;
52342;SDS011;38277;51.972;4.624;2022-07-04T07:42:58;4.1;;;1.5;;
52342;SDS011;38277;51.972;4.624;2022-07-04T07:47:18;1.2;;;1.0;;
52342;SDS011;38277;51.972;4.624;2022-07-04T07:51:34;2.0;;;1.3;;
52342;SDS011;38277;51.972;4.624;2022-07-04T07:56:01;2.1;;;1.3;;
52342;SDS011;38277;51.972;4.624;2022-07-04T08:00:49;2.8;;;1.4;;
52342;SDS011;38277;51.972;4.624;2022-07-04T08:07:02;3.5;;;1.8;;
52342;SDS011;38277;51.972;4.624;2022-07-04T08:09:35;4.3;;;1.5;;
52342;SDS011;38277;51.972;4.624;2022-07-04T08:14:21;3.5;;;1.4;;
52342;SDS011;38277;51.972;4.624;2022-07-04T08:18:52;2.9;;;1.4;;
52342;SDS011;38277;51.972;4.624;2022-07-04T08:23:26;1.8;;;1.2;;
52342;SDS011;38277;51.972;4.624;2022-07-04T08:27:53;5.0;;;1.4;;
52342;SDS011;38277;51.972;4.624;2022-07-04T08:32:21;3.2;;;1.2;;
52342;SDS011;38277;51.972;4.624;2022-07-04T08:36:40;2.7;;;1.1;;
52342;SDS011;38277;51.972;4.624;2022-07-04T08:41:25;3.2;;;1.4;;
52342;SDS011;38277;51.972;4.624;2022-07-04T08:45:40;3.8;;;1.5;;
52342;SDS011;38277;51.972;4.624;2022-07-04T08:50:10;4.0;;;1.3;;
52342;SDS011;38277;51.972;4.624;2022-07-04T08:59:25;5.1;;;1.8;;
52342;SDS011;38277;51.972;4.624;2022-07-04T09:03:48;2.6;;;1.5;;
52342;SDS011;38277;51.972;4.624;2022-07-04T09:08:12;2.4;;;1.4;;
52342;SDS011;38277;51.972;4.624;2022-07-04T09:17:03;2.7;;;1.7;;
52342;SDS011;38277;51.972;4.624;2022-07-04T09:21:45;2.4;;;1.4;;
52342;SDS011;38277;51.972;4.624;2022-07-04T09:26:22;4.5;;;1.6;;
52342;SDS011;38277;51.972;4.624;2022-07-04T09:35:10;1.9;;;1.2;;
52342;SDS011;38277;51.972;4.624;2022-07-04T09:39:45;2.8;;;1.6;;
52342;SDS011;38277;51.972;4.624;2022-07-04T09:44:17;4.5;;;1.6;;
52342;SDS011;38277;51.972;4.624;2022-07-04T09:53:19;3.3;;;1.2;;
52342;SDS011;38277;51.972;4.624;2022-07-04T09:57:36;4.9;;;1.1;;
52342;SDS011;38277;51.972;4.624;2022-07-04T10:02:20;3.1;;;0.8;;
52342;SDS011;38277;51.972;4.624;2022-07-04T10:06:37;0.9;;;0.8;;
52342;SDS011;38277;51.972;4.624;2022-07-04T10:11:32;2.0;;;1.1;;
52342;SDS011;38277;51.972;4.624;2022-07-04T10:15:58;2.3;;;1.2;;
52342;SDS011;38277;51.972;4.624;2022-07-04T10:20:01;2.1;;;1.0;;
52342;SDS011;38277;51.972;4.624;2022-07-04T10:24:52;2.3;;;1.2;;
52342;SDS011;38277;51.972;4.624;2022-07-04T10:29:25;2.3;;;1.0;;
52342;SDS011;38277;51.972;4.624;2022-07-04T10:33:29;3.2;;;1.5;;
52342;SDS011;38277;51.972;4.624;2022-07-04T10:38:10;2.7;;;1.1;;
52342;SDS011;38277;51.972;4.624;2022-07-04T10:42:30;2.6;;;1.2;;
52342;SDS011;38277;51.972;4.624;2022-07-04T10:47:25;2.2;;;1.1;;
52342;SDS011;38277;51.972;4.624;2022-07-04T10:51:43;3.2;;;1.0;;
52342;SDS011;38277;51.972;4.624;2022-07-04T10:56:06;2.8;;;1.2;;
52342;SDS011;38277;51.972;4.624;2022-07-04T11:05:08;3.8;;;1.3;;
52342;SDS011;38277;51.972;4.624;2022-07-04T11:09:37;3.2;;;1.0;;
52342;SDS011;38277;51.972;4.624;2022-07-04T11:14:31;4.5;;;1.4;;
52342;SDS011;38277;51.972;4.624;2022-07-04T11:18:52;1.5;;;1.2;;
52342;SDS011;38277;51.972;4.624;2022-07-04T11:23:03;2.5;;;1.2;;
52342;SDS011;38277;51.972;4.624;2022-07-04T11:27:41;2.4;;;1.3;;
52342;SDS011;38277;51.972;4.624;2022-07-04T11:36:33;2.8;;;1.0;;
52342;SDS011;38277;51.972;4.624;2022-07-04T11:41:04;2.9;;;1.1;;
52342;SDS011;38277;51.972;4.624;2022-07-04T11:45:57;2.4;;;1.3;;
52342;SDS011;38277;51.972;4.624;2022-07-04T11:50:27;2.9;;;1.1;;
52342;SDS011;38277;51.972;4.624;2022-07-04T11:54:47;4.6;;;1.2;;
52342;SDS011;38277;51.972;4.624;2022-07-04T11:59:09;3.7;;;0.9;;
52342;SDS011;38277;51.972;4.624;2022-07-04T12:08:06;1.8;;;1.1;;
52342;SDS011;38277;51.972;4.624;2022-07-04T12:12:50;2.1;;;0.7;;
52342;SDS011;38277;51.972;4.624;2022-07-04T12:17:20;1.8;;;0.8;;
52342;SDS011;38277;51.972;4.624;2022-07-04T12:21:44;3.2;;;0.8;;
52342;SDS011;38277;51.972;4.624;2022-07-04T12:26:14;1.3;;;0.7;;
52342;SDS011;38277;51.972;4.624;2022-07-04T12:30:57;1.2;;;0.7;;
52342;SDS011;38277;51.972;4.624;2022-07-04T12:35:32;1.7;;;0.9;;
52342;SDS011;38277;51.972;4.624;2022-07-04T12:39:46;1.9;;;0.8;;
52342;SDS011;38277;51.972;4.624;2022-07-04T12:44:08;1.7;;;0.7;;
52342;SDS011;38277;51.972;4.624;2022-07-04T12:48:47;2.4;;;1.3;;
52342;SDS011;38277;51.972;4.624;2022-07-04T12:53:11;1.8;;;1.0;;
52342;SDS011;38277;51.972;4.624;2022-07-04T12:57:34;2.5;;;1.2;;
52342;SDS011;38277;51.972;4.624;2022-07-04T13:02:17;1.5;;;0.8;;
52342;SDS011;38277;51.972;4.624;2022-07-04T13:06:34;2.1;;;0.9;;
52342;SDS011;38277;51.972;4.624;2022-07-04T13:11:25;2.1;;;0.8;;
52342;SDS011;38277;51.972;4.624;2022-07-04T13:15:32;1.2;;;0.7;;
52342;SDS011;38277;51.972;4.624;2022-07-04T13:20:16;2.6;;;1.2;;
52342;SDS011;38277;51.972;4.624;2022-07-04T13:24:54;2.1;;;0.9;;
52342;SDS011;38277;51.972;4.624;2022-07-04T13:33:34;2.8;;;1.0;;
52342;SDS011;38277;51.972;4.624;2022-07-04T13:38:23;0.8;;;0.8;;
52342;SDS011;38277;51.972;4.624;2022-07-04T13:42:48;2.7;;;0.7;;
52342;SDS011;38277;51.972;4.624;2022-07-04T13:51:33;2.6;;;1.0;;
52342;SDS011;38277;51.972;4.624;2022-07-04T13:56:26;2.5;;;1.1;;
52342;SDS011;38277;51.972;4.624;2022-07-04T14:00:37;1.7;;;0.7;;
52342;SDS011;38277;51.972;4.624;2022-07-04T14:09:42;2.7;;;1.0;;
52342;SDS011;38277;51.972;4.624;2022-07-04T14:14:25;2.2;;;0.9;;
52342;SDS011;38277;51.972;4.624;2022-07-04T14:18:33;2.1;;;0.9;;
52342;SDS011;38277;51.972;4.624;2022-07-04T14:23:26;2.8;;;0.9;;
52342;SDS011;38277;51.972;4.624;2022-07-04T14:27:51;3.8;;;1.1;;
52342;SDS011;38277;51.972;4.624;2022-07-04T14:32:19;2.0;;;0.9;;
52342;SDS011;38277;51.972;4.624;2022-07-04T14:36:53;2.0;;;0.9;;
52342;SDS011;38277;51.972;4.624;2022-07-04T14:41:04;4.9;;;1.1;;
52342;SDS011;38277;51.972;4.624;2022-07-04T14:45:37;2.5;;;1.1;;
52342;SDS011;38277;51.972;4.624;2022-07-04T14:50:23;2.1;;;0.9;;
52342;SDS011;38277;51.972;4.624;2022-07-04T14:54:33;7.6;;;1.7;;
52342;SDS011;38277;51.972;4.624;2022-07-04T14:58:59;2.3;;;0.9;;
52342;SDS011;38277;51.972;4.624;2022-07-04T15:03:34;2.8;;;0.9;;
52342;SDS011;38277;51.972;4.624;2022-07-04T15:08:17;4.5;;;1.1;;
52342;SDS011;38277;51.972;4.624;2022-07-04T15:12:43;3.1;;;1.0;;
52342;SDS011;38277;51.972;4.624;2022-07-04T15:17:10;2.1;;;0.8;;
52342;SDS011;38277;51.972;4.624;2022-07-04T15:21:48;1.6;;;0.9;;
52342;SDS011;38277;51.972;4.624;2022-07-04T15:26:13;2.1;;;0.9;;
52342;SDS011;38277;51.972;4.624;2022-07-04T15:30:37;2.1;;;0.8;;
52342;SDS011;38277;51.972;4.624;2022-07-04T15:35:22;2.5;;;0.9;;
52342;SDS011;38277;51.972;4.624;2022-07-04T15:39:43;2.4;;;0.7;;
52342;SDS011;38277;51.972;4.624;2022-07-04T15:44:26;3.6;;;0.9;;
52342;SDS011;38277;51.972;4.624;2022-07-04T15:53:26;3.2;;;0.7;;
52342;SDS011;38277;51.972;4.624;2022-07-04T15:57:45;3.7;;;1.1;;
52342;SDS011;38277;51.972;4.624;2022-07-04T16:02:07;3.0;;;1.3;;
52342;SDS011;38277;51.972;4.624;2022-07-04T16:06:29;2.7;;;1.1;;
52342;SDS011;38277;51.972;4.624;2022-07-04T16:11:26;2.7;;;1.3;;
52342;SDS011;38277;51.972;4.624;2022-07-04T16:15:50;3.6;;;1.2;;
52342;SDS011;38277;51.972;4.624;2022-07-04T16:20:06;1.9;;;1.0;;
52342;SDS011;38277;51.972;4.624;2022-07-04T16:29:04;3.3;;;1.1;;
52342;SDS011;38277;51.972;4.624;2022-07-04T16:33:39;1.7;;;1.0;;
52342;SDS011;38277;51.972;4.624;2022-07-04T16:42:42;2.4;;;0.9;;
52342;SDS011;38277;51.972;4.624;2022-07-04T16:47:28;3.2;;;1.0;;
52342;SDS011;38277;51.972;4.624;2022-07-04T16:53:36;3.4;;;1.1;;
52342;SDS011;38277;51.972;4.624;2022-07-04T16:56:08;2.1;;;0.9;;
52342;SDS011;38277;51.972;4.624;2022-07-04T17:00:49;2.0;;;1.0;;
52342;SDS011;38277;51.972;4.624;2022-07-04T17:05:23;1.8;;;1.0;;
52342;SDS011;38277;51.972;4.624;2022-07-04T17:11:29;1.8;;;1.1;;
52342;SDS011;38277;51.972;4.624;2022-07-04T17:14:11;2.6;;;0.9;;
52342;SDS011;38277;51.972;4.624;2022-07-04T17:18:49;2.5;;;1.1;;
52342;SDS011;38277;51.972;4.624;2022-07-04T17:23:15;1.4;;;0.8;;
52342;SDS011;38277;51.972;4.624;2022-07-04T17:29:20;2.7;;;1.0;;
52342;SDS011;38277;51.972;4.624;2022-07-04T17:32:08;1.5;;;1.1;;
52342;SDS011;38277;51.972;4.624;2022-07-04T17:38:18;1.8;;;0.9;;
52342;SDS011;38277;51.972;4.624;2022-07-04T17:41:21;1.8;;;0.9;;
52342;SDS011;38277;51.972;4.624;2022-07-04T17:50:02;3.3;;;1.0;;
52342;SDS011;38277;51.972;4.624;2022-07-04T17:54:35;3.1;;;1.0;;
52342;SDS011;38277;51.972;4.624;2022-07-04T17:59:24;1.5;;;0.9;;
52342;SDS011;38277;51.972;4.624;2022-07-04T18:08:11;2.5;;;1.1;;
52342;SDS011;38277;51.972;4.624;2022-07-04T18:12:54;1.9;;;1.2;;
52342;SDS011;38277;51.972;4.624;2022-07-04T18:26:04;2.3;;;1.0;;
52342;SDS011;38277;51.972;4.624;2022-07-04T18:30:33;3.3;;;1.2;;
52342;SDS011;38277;51.972;4.624;2022-07-04T18:35:13;2.1;;;1.1;;
52342;SDS011;38277;51.972;4.624;2022-07-04T18:39:57;6.4;;;1.4;;
52342;SDS011;38277;51.972;4.624;2022-07-04T18:44:20;2.2;;;0.9;;
52342;SDS011;38277;51.972;4.624;2022-07-04T18:48:29;3.7;;;1.1;;
52342;SDS011;38277;51.972;4.624;2022-07-04T18:53:05;3.7;;;1.5;;
52342;SDS011;38277;51.972;4.624;2022-07-04T18:57:44;2.9;;;1.3;;
52342;SDS011;38277;51.972;4.624;2022-07-04T19:02:10;1.8;;;1.3;;
52342;SDS011;38277;51.972;4.624;2022-07-04T19:06:36;2.4;;;1.1;;
52342;SDS011;38277;51.972;4.624;2022-07-04T19:11:21;2.0;;;1.1;;
52342;SDS011;38277;51.972;4.624;2022-07-04T19:15:41;2.2;;;1.1;;
52342;SDS011;38277;51.972;4.624;2022-07-04T19:20:16;2.1;;;1.3;;
52342;SDS011;38277;51.972;4.624;2022-07-04T19:24:48;1.9;;;1.2;;
52342;SDS011;38277;51.972;4.624;2022-07-04T19:29:09;2.2;;;1.1;;
52342;SDS011;38277;51.972;4.624;2022-07-04T19:33:55;3.6;;;1.0;;
52342;SDS011;38277;51.972;4.624;2022-07-04T19:38:22;2.4;;;1.1;;
52342;SDS011;38277;51.972;4.624;2022-07-04T19:42:30;2.3;;;1.1;;
52342;SDS011;38277;51.972;4.624;2022-07-04T19:56:13;2.2;;;1.0;;
52342;SDS011;38277;51.972;4.624;2022-07-04T20:00:50;1.3;;;1.1;;
52342;SDS011;38277;51.972;4.624;2022-07-04T20:09:30;2.2;;;1.1;;
52342;SDS011;38277;51.972;4.624;2022-07-04T20:14:22;2.1;;;1.3;;
52342;SDS011;38277;51.972;4.624;2022-07-04T20:18:46;1.7;;;1.0;;
52342;SDS011;38277;51.972;4.624;2022-07-04T20:23:12;2.8;;;1.5;;
52342;SDS011;38277;51.972;4.624;2022-07-04T20:32:02;2.1;;;1.2;;
52342;SDS011;38277;51.972;4.624;2022-07-04T20:36:44;3.4;;;1.2;;
52342;SDS011;38277;51.972;4.624;2022-07-04T20:41:18;2.3;;;1.7;;
52342;SDS011;38277;51.972;4.624;2022-07-04T20:45:51;4.8;;;1.4;;
52342;SDS011;38277;51.972;4.624;2022-07-04T20:50:13;3.7;;;1.5;;
52342;SDS011;38277;51.972;4.624;2022-07-04T20:54:29;3.2;;;1.4;;
52342;SDS011;38277;51.972;4.624;2022-07-04T20:59:16;2.1;;;1.4;;
52342;SDS011;38277;51.972;4.624;2022-07-04T21:05:18;2.3;;;1.6;;
52342;SDS011;38277;51.972;4.624;2022-07-04T21:08:18;3.7;;;1.6;;
52342;SDS011;38277;51.972;4.624;2022-07-04T21:12:54;2.4;;;1.7;;
52342;SDS011;38277;51.972;4.624;2022-07-04T21:17:13;2.2;;;1.4;;
52342;SDS011;38277;51.972;4.624;2022-07-04T21:21:52;2.3;;;1.6;;
52342;SDS011;38277;51.972;4.624;2022-07-04T21:26:21;3.3;;;1.7;;
52342;SDS011;38277;51.972;4.624;2022-07-04T21:30:51;2.5;;;1.5;;
52342;SDS011;38277;51.972;4.624;2022-07-04T21:35:22;3.4;;;2.5;;
52342;SDS011;38277;51.972;4.624;2022-07-04T21:39:55;3.0;;;1.6;;
52342;SDS011;38277;51.972;4.624;2022-07-04T21:44:19;2.2;;;1.5;;
52342;SDS011;38277;51.972;4.624;2022-07-04T21:48:53;3.0;;;1.5;;
52342;SDS011;38277;51.972;4.624;2022-07-04T21:57:46;2.4;;;1.6;;
52342;SDS011;38277;51.972;4.624;2022-07-04T22:02:22;3.8;;;1.6;;
52342;SDS011;38277;51.972;4.624;2022-07-04T22:06:32;2.8;;;1.6;;
52342;SDS011;38277;51.972;4.624;2022-07-04T22:11:08;2.9;;;1.8;;
52342;SDS011;38277;51.972;4.624;2022-07-04T22:15:36;3.1;;;1.8;;
52342;SDS011;38277;51.972;4.624;2022-07-04T22:20:03;2.3;;;1.5;;
52342;SDS011;38277;51.972;4.624;2022-07-04T22:24:38;3.2;;;1.5;;
52342;SDS011;38277;51.972;4.624;2022-07-04T22:33:38;2.0;;;1.6;;
52342;SDS011;38277;51.972;4.624;2022-07-04T22:38:15;4.0;;;2.0;;
52342;SDS011;38277;51.972;4.624;2022-07-04T22:42:36;2.5;;;1.8;;
52342;SDS011;38277;51.972;4.624;2022-07-04T22:47:05;3.4;;;1.9;;
52342;SDS011;38277;51.972;4.624;2022-07-04T22:51:54;2.3;;;1.7;;
52342;SDS011;38277;51.972;4.624;2022-07-04T22:55:59;4.0;;;1.8;;
52342;SDS011;38277;51.972;4.624;2022-07-04T23:00:49;4.7;;;2.2;;
52342;SDS011;38277;51.972;4.624;2022-07-04T23:05:05;5.1;;;2.4;;
52342;SDS011;38277;51.972;4.624;2022-07-04T23:09:45;4.9;;;2.3;;
52342;SDS011;38277;51.972;4.624;2022-07-04T23:13:59;4.1;;;2.0;;
52342;SDS011;38277;51.972;4.624;2022-07-04T23:18:29;2.7;;;1.8;;
52342;SDS011;38277;51.972;4.624;2022-07-04T23:23:09;3.3;;;1.7;;
52342;SDS011;38277;51.972;4.624;2022-07-04T23:27:34;3.0;;;1.8;;
52342;SDS011;38277;51.972;4.624;2022-07-04T23:32:06;2.8;;;1.9;;
52342;SDS011;38277;51.972;4.624;2022-07-04T23:36:34;4.6;;;2.2;;
52342;SDS011;38277;51.972;4.624;2022-07-04T23:41:28;3.9;;;1.9;;
52342;SDS011;38277;51.972;4.624;2022-07-04T23:45:49;3.4;;;2.0;;
52342;SDS011;38277;51.972;4.624;2022-07-04T23:49:59;4.8;;;2.1;;
52342;SDS011;38277;51.972;4.624;2022-07-04T23:54:29;5.1;;;2.4;;
